Řízení letového provozu České republiky
Letiste: LKKV Aktualizace: 28.08.2016 00:08:10  UTC
 METAR LKKV 28.08. 00:00 ...
METAR LKKV 280000Z 18002KT CAVOK 14/10 Q1019 RMK REG QNH 1017=
 TAF LKKV 27.08. 23:00 ...
TAF LKKV 272300Z 2800/2906 VRB02KT CAVOK      PROB30 TEMPO 2803/2805 2000 MIFG NSC      PROB40 TEMPO 2817/2906 27030KT 3000 TSRA SCT025CB BKN030=